Time;durP1;ratioP1;P1;durP2;ratioP2;P2;SDS_P1;SDS_P2;PMS_P1;PMS_P2;Temp;Humidity;BMP_temperature;BMP_pressure;BME280_temperature;BME280_humidity;BME280_pressure;Samples;Min_cycle;Max_cycle;Signal;HPM_P1;HPM_P2
2021/05/24 00:01:05;;;;;;;3.47;2.25;;;6.90;99.90;;;;;;5094170;28;20567;-70
2021/05/24 00:03:31;;;;;;;2.58;2.22;;;6.90;99.90;;;;;;5093297;28;20261;-71
2021/05/24 00:05:57;;;;;;;8.80;2.40;;;6.90;99.90;;;;;;5092914;28;20237;-71
2021/05/24 00:08:23;;;;;;;4.38;2.58;;;6.90;99.90;;;;;;5092316;28;20200;-71
2021/05/24 00:10:50;;;;;;;2.72;2.53;;;6.80;99.90;;;;;;5093538;28;20667;-71
2021/05/24 00:13:18;;;;;;;6.78;3.00;;;6.80;99.90;;;;;;5090871;28;20553;-71
2021/05/24 00:15:47;;;;;;;4.07;2.38;;;6.80;99.90;;;;;;5073001;28;20220;-71
2021/05/24 00:18:14;;;;;;;3.88;2.42;;;6.80;99.90;;;;;;5073134;28;20232;-71
2021/05/24 00:20:46;;;;;;;4.55;2.78;;;6.70;99.90;;;;;;5073207;28;20570;-71
2021/05/24 00:23:13;;;;;;;2.58;1.85;;;6.70;99.90;;;;;;5073440;28;20575;-71
2021/05/24 00:25:39;;;;;;;6.25;2.35;;;6.60;99.90;;;;;;5072999;28;20248;-71
2021/05/24 00:28:06;;;;;;;2.58;2.38;;;6.60;99.90;;;;;;5072609;28;20201;-71
2021/05/24 00:30:34;;;;;;;3.65;2.60;;;6.60;99.90;;;;;;5073172;28;20258;-71
2021/05/24 00:33:01;;;;;;;3.13;1.88;;;6.60;99.90;;;;;;5072882;28;20254;-71
2021/05/24 00:35:27;;;;;;;2.58;2.38;;;6.60;99.90;;;;;;5072870;28;20220;-71
2021/05/24 00:37:53;;;;;;;2.25;1.88;;;6.60;99.90;;;;;;5072314;28;20224;-70
2021/05/24 00:40:20;;;;;;;2.30;2.10;;;6.60;99.90;;;;;;5073093;28;20205;-71
2021/05/24 00:42:46;;;;;;;2.90;2.30;;;6.50;99.90;;;;;;5072748;28;20553;-71
2021/05/24 00:45:13;;;;;;;2.42;1.98;;;6.50;99.90;;;;;;5072719;28;20699;-71
2021/05/24 00:47:40;;;;;;;2.20;1.60;;;6.50;99.90;;;;;;5072079;28;20676;-70
2021/05/24 00:50:08;;;;;;;2.58;1.70;;;6.50;99.90;;;;;;5072093;28;20204;-70
2021/05/24 00:52:35;;;;;;;4.05;2.30;;;6.50;99.90;;;;;;5072662;28;20230;-70
2021/05/24 00:55:01;;;;;;;2.50;2.30;;;6.50;99.90;;;;;;5072287;28;20239;-70
2021/05/24 00:57:28;;;;;;;2.35;2.15;;;6.50;99.90;;;;;;5072606;28;20220;-70
2021/05/24 00:59:55;;;;;;;2.53;2.33;;;6.50;99.90;;;;;;5072153;28;20209;-71
2021/05/24 01:02:21;;;;;;;2.28;2.10;;;6.40;99.90;;;;;;5072195;28;20208;-70
2021/05/24 01:04:48;;;;;;;3.50;2.40;;;6.40;99.90;;;;;;5072063;28;20224;-70
2021/05/24 01:07:14;;;;;;;3.08;2.17;;;6.40;99.90;;;;;;5072237;28;20204;-70
2021/05/24 01:09:40;;;;;;;2.50;2.20;;;6.40;99.90;;;;;;5071998;28;20207;-70
2021/05/24 01:12:08;;;;;;;4.75;2.55;;;6.40;99.90;;;;;;5072006;28;20201;-70
2021/05/24 01:14:34;;;;;;;4.28;2.67;;;6.40;99.90;;;;;;5072122;28;20627;-70
2021/05/24 01:17:01;;;;;;;4.72;2.50;;;6.30;99.90;;;;;;5071953;28;20216;-70
2021/05/24 01:19:27;;;;;;;2.63;2.20;;;6.30;99.90;;;;;;5071784;28;20200;-70
2021/05/24 01:21:54;;;;;;;2.80;2.42;;;6.40;99.90;;;;;;5071803;28;20200;-70
2021/05/24 01:24:21;;;;;;;2.80;2.60;;;6.30;99.90;;;;;;5071739;28;20651;-70
2021/05/24 01:26:48;;;;;;;3.20;2.60;;;6.40;99.90;;;;;;5071775;28;20201;-70
2021/05/24 01:29:15;;;;;;;3.75;2.53;;;6.40;99.90;;;;;;5071583;28;20215;-70
2021/05/24 01:31:41;;;;;;;2.20;2.00;;;6.30;99.90;;;;;;5071538;28;20544;-70
2021/05/24 01:34:08;;;;;;;2.70;2.50;;;6.30;99.90;;;;;;5071891;28;20704;-70
2021/05/24 01:36:34;;;;;;;2.40;2.20;;;6.30;99.90;;;;;;5071468;28;20208;-71
2021/05/24 01:39:01;;;;;;;3.10;2.60;;;6.30;99.90;;;;;;5071383;28;20207;-71
2021/05/24 01:41:27;;;;;;;2.70;2.00;;;6.30;99.90;;;;;;5071699;28;20411;-71
2021/05/24 01:43:53;;;;;;;2.00;1.90;;;6.30;99.90;;;;;;5071590;28;20204;-71
2021/05/24 01:46:20;;;;;;;2.53;2.33;;;6.30;99.90;;;;;;5071610;28;20205;-72
2021/05/24 01:48:46;;;;;;;2.53;2.33;;;6.30;99.90;;;;;;5070989;28;20201;-71
2021/05/24 01:51:12;;;;;;;3.65;2.20;;;6.30;99.90;;;;;;5071619;28;20278;-71
2021/05/24 01:53:38;;;;;;;2.50;2.30;;;6.30;99.90;;;;;;5071151;28;20242;-70
2021/05/24 01:56:06;;;;;;;2.50;2.30;;;6.30;99.90;;;;;;5071147;28;20232;-70
2021/05/24 01:58:33;;;;;;;3.25;2.75;;;6.30;99.90;;;;;;5070766;28;20217;-70
2021/05/24 02:01:07;;;;;;;3.17;2.88;;;6.20;99.90;;;;;;5070928;28;20212;-70
2021/05/24 02:03:33;;;;;;;2.70;2.50;;;6.20;99.90;;;;;;5071214;28;20606;-70
2021/05/24 02:06:01;;;;;;;5.50;2.50;;;6.20;99.90;;;;;;5070303;28;20224;-70
2021/05/24 02:08:28;;;;;;;2.30;1.73;;;6.20;99.90;;;;;;5070947;28;20196;-70
2021/05/24 02:10:55;;;;;;;2.80;2.60;;;6.10;99.90;;;;;;5070850;28;20212;-70
2021/05/24 02:13:22;;;;;;;2.83;2.40;;;6.10;99.90;;;;;;5071072;28;20204;-70
2021/05/24 02:15:49;;;;;;;3.25;2.20;;;6.10;99.90;;;;;;5070775;28;20227;-70
2021/05/24 02:18:15;;;;;;;3.55;2.28;;;6.10;99.90;;;;;;5070441;28;20231;-71
2021/05/24 02:20:41;;;;;;;2.50;2.00;;;6.10;99.90;;;;;;5070795;28;20738;-70
2021/05/24 02:23:09;;;;;;;2.88;2.50;;;6.10;99.90;;;;;;5070781;28;20261;-70
2021/05/24 02:25:35;;;;;;;2.85;2.60;;;6.10;99.90;;;;;;5070765;28;20224;-70
2021/05/24 02:28:02;;;;;;;3.15;2.83;;;6.00;99.90;;;;;;5070414;28;20650;-70
2021/05/24 02:30:30;;;;;;;2.72;2.50;;;6.00;99.90;;;;;;5070882;28;20208;-70
2021/05/24 02:32:56;;;;;;;2.90;2.45;;;6.00;99.90;;;;;;5070818;28;20196;-70
2021/05/24 02:35:24;;;;;;;2.30;2.10;;;6.00;99.90;;;;;;5070552;28;20221;-70
2021/05/24 02:37:51;;;;;;;3.67;2.20;;;6.00;99.90;;;;;;5070163;28;20593;-70
2021/05/24 02:40:19;;;;;;;2.50;2.28;;;6.10;99.90;;;;;;5070579;28;20196;-70
2021/05/24 02:42:46;;;;;;;2.90;2.40;;;6.00;99.90;;;;;;5070768;28;20205;-70
2021/05/24 02:45:14;;;;;;;4.25;2.50;;;6.00;99.90;;;;;;5070271;28;20223;-70
2021/05/24 02:47:41;;;;;;;2.80;2.55;;;6.00;99.90;;;;;;5070306;28;20794;-70
2021/05/24 02:50:14;;;;;;;2.30;2.10;;;6.00;99.90;;;;;;5070601;28;20237;-70
2021/05/24 02:52:41;;;;;;;2.53;2.22;;;6.00;99.90;;;;;;5070583;28;20295;-70
2021/05/24 02:55:08;;;;;;;2.58;2.38;;;6.00;99.90;;;;;;5070511;28;20235;-70
2021/05/24 02:57:34;;;;;;;2.95;1.98;;;6.00;99.90;;;;;;5070386;28;20243;-70
2021/05/24 03:00:00;;;;;;;2.50;2.30;;;6.00;99.90;;;;;;5070279;28;20604;-70
2021/05/24 03:02:28;;;;;;;2.20;2.05;;;6.00;99.90;;;;;;5070527;28;20200;-70
2021/05/24 03:04:56;;;;;;;2.53;2.33;;;6.00;99.90;;;;;;5070194;28;20220;-70
2021/05/24 03:07:22;;;;;;;2.08;1.80;;;6.00;99.90;;;;;;5070456;28;20192;-70
2021/05/24 03:09:48;;;;;;;2.30;1.80;;;6.00;99.90;;;;;;5069817;28;20574;-70
2021/05/24 03:12:15;;;;;;;2.10;1.90;;;6.00;99.90;;;;;;5072761;28;20204;-70
2021/05/24 03:14:41;;;;;;;2.28;2.08;;;6.00;99.90;;;;;;5074449;28;20224;-70
2021/05/24 03:17:07;;;;;;;2.55;2.15;;;6.00;99.90;;;;;;5074300;28;20574;-70
2021/05/24 03:19:34;;;;;;;2.75;1.77;;;6.00;99.90;;;;;;5074172;28;20208;-70
2021/05/24 03:22:01;;;;;;;1.98;1.80;;;6.00;99.90;;;;;;5073956;28;20204;-70
2021/05/24 03:24:27;;;;;;;2.50;2.00;;;6.10;99.90;;;;;;5074290;28;20236;-70
2021/05/24 03:26:53;;;;;;;2.80;2.22;;;6.10;99.90;;;;;;5073958;28;20265;-70
2021/05/24 03:29:19;;;;;;;2.60;1.80;;;6.10;99.90;;;;;;5074040;28;20285;-70
2021/05/24 03:31:46;;;;;;;2.08;1.88;;;6.10;99.90;;;;;;5074061;28;20279;-70
2021/05/24 03:34:12;;;;;;;2.80;2.00;;;6.10;99.90;;;;;;5074049;28;20797;-70
2021/05/24 03:36:38;;;;;;;2.30;2.05;;;6.10;99.90;;;;;;5073987;28;20253;-70
2021/05/24 03:39:06;;;;;;;2.30;2.10;;;6.10;99.90;;;;;;5073413;28;20204;-70
2021/05/24 03:41:32;;;;;;;2.70;2.20;;;6.10;99.90;;;;;;5074260;28;20204;-70
2021/05/24 03:43:59;;;;;;;2.42;1.85;;;6.10;99.90;;;;;;5073623;28;20208;-70
2021/05/24 03:46:25;;;;;;;2.85;1.90;;;6.10;99.90;;;;;;5073914;28;20200;-70
2021/05/24 03:48:51;;;;;;;2.65;1.90;;;6.10;99.90;;;;;;5073498;28;20207;-70
2021/05/24 03:51:18;;;;;;;2.05;1.77;;;6.10;99.90;;;;;;5073647;28;20204;-70
2021/05/24 03:53:44;;;;;;;1.98;1.80;;;6.20;99.90;;;;;;5073591;28;20219;-70
2021/05/24 03:56:13;;;;;;;3.10;2.00;;;6.20;99.90;;;;;;5073611;28;20564;-70
2021/05/24 03:58:39;;;;;;;2.15;1.95;;;6.20;99.90;;;;;;5073444;28;20216;-70
2021/05/24 04:01:06;;;;;;;1.90;1.80;;;6.20;99.90;;;;;;5073360;28;20204;-70
2021/05/24 04:03:32;;;;;;;5.35;2.53;;;6.20;99.90;;;;;;5073520;28;20207;-70
2021/05/24 04:06:00;;;;;;;2.58;2.38;;;6.20;99.90;;;;;;5073420;28;20644;-70
2021/05/24 04:08:33;;;;;;;2.20;2.00;;;6.20;99.90;;;;;;5073051;28;20219;-70
2021/05/24 04:11:00;;;;;;;2.50;2.20;;;6.30;99.90;;;;;;5073337;28;20578;-71
2021/05/24 04:13:27;;;;;;;2.75;1.80;;;6.30;99.90;;;;;;5073274;28;20200;-70
2021/05/24 04:15:55;;;;;;;2.95;2.00;;;6.30;99.90;;;;;;5073243;28;20228;-71
2021/05/24 04:18:22;;;;;;;1.92;1.80;;;6.30;99.90;;;;;;5072792;28;20703;-71
2021/05/24 04:20:49;;;;;;;4.68;2.33;;;6.30;99.90;;;;;;5073347;28;20302;-71
2021/05/24 04:23:15;;;;;;;3.88;2.45;;;6.40;99.90;;;;;;5073344;28;20287;-70
2021/05/24 04:25:42;;;;;;;3.05;2.53;;;6.40;99.90;;;;;;5072753;28;20224;-70
2021/05/24 04:28:08;;;;;;;2.20;1.98;;;6.40;99.90;;;;;;5072878;28;20192;-70
2021/05/24 04:30:35;;;;;;;4.32;2.20;;;6.40;99.90;;;;;;5073001;28;20683;-70
2021/05/24 04:33:02;;;;;;;2.25;1.88;;;6.50;99.90;;;;;;5073073;28;20200;-70
2021/05/24 04:35:28;;;;;;;3.78;1.83;;;6.50;99.90;;;;;;5073252;28;20228;-70
2021/05/24 04:37:55;;;;;;;2.50;2.15;;;6.50;99.90;;;;;;5072437;28;20231;-70
2021/05/24 04:40:21;;;;;;;2.03;1.92;;;6.50;99.90;;;;;;5073058;28;20231;-70
2021/05/24 04:42:48;;;;;;;2.10;1.90;;;6.60;99.90;;;;;;5072680;28;20244;-70
2021/05/24 04:45:15;;;;;;;2.00;1.80;;;6.60;99.90;;;;;;5072772;28;20220;-70
2021/05/24 04:47:42;;;;;;;2.17;1.98;;;6.60;99.90;;;;;;5072352;28;20672;-70
2021/05/24 04:50:10;;;;;;;2.85;2.15;;;6.70;99.90;;;;;;5072846;28;20572;-70
2021/05/24 04:52:36;;;;;;;2.90;1.80;;;6.70;99.90;;;;;;5072996;28;20214;-70
2021/05/24 04:55:04;;;;;;;3.70;2.10;;;6.80;99.90;;;;;;5072361;28;20231;-70
2021/05/24 04:57:30;;;;;;;2.70;1.70;;;6.80;99.90;;;;;;5072695;28;20227;-70
2021/05/24 04:59:57;;;;;;;2.42;2.10;;;6.80;99.90;;;;;;5072028;28;20626;-71
2021/05/24 05:02:23;;;;;;;3.17;2.40;;;6.90;99.90;;;;;;5072614;28;20197;-70
2021/05/24 05:04:50;;;;;;;2.38;1.95;;;6.90;99.90;;;;;;5072311;28;20217;-70
2021/05/24 05:07:16;;;;;;;2.67;1.92;;;7.00;99.90;;;;;;5072447;28;20341;-70
2021/05/24 05:09:42;;;;;;;4.75;1.70;;;7.10;99.90;;;;;;5072193;28;20569;-70
2021/05/24 05:12:10;;;;;;;2.38;1.58;;;7.10;99.90;;;;;;5072316;28;20200;-70
2021/05/24 05:14:36;;;;;;;1.88;1.70;;;7.20;99.90;;;;;;5072236;28;20801;-70
2021/05/24 05:17:02;;;;;;;2.08;1.98;;;7.20;99.90;;;;;;5071936;28;20241;-70
2021/05/24 05:19:28;;;;;;;2.25;2.05;;;7.30;99.90;;;;;;5072029;28;20209;-70
2021/05/24 05:21:56;;;;;;;3.05;2.20;;;7.40;99.90;;;;;;5071986;28;20659;-70
2021/05/24 05:24:22;;;;;;;2.10;1.90;;;7.50;99.90;;;;;;5071689;28;20723;-70
2021/05/24 05:26:48;;;;;;;2.70;2.20;;;7.60;99.90;;;;;;5072058;28;20207;-70
2021/05/24 05:29:14;;;;;;;2.35;1.85;;;7.60;99.90;;;;;;5071461;28;20208;-71
2021/05/24 05:31:41;;;;;;;3.03;1.95;;;7.70;99.90;;;;;;5072026;28;20197;-71
2021/05/24 05:34:07;;;;;;;2.72;1.88;;;7.80;99.90;;;;;;5071096;28;20235;-71
2021/05/24 05:36:36;;;;;;;2.13;1.92;;;7.90;99.90;;;;;;5071923;28;20216;-71
2021/05/24 05:39:04;;;;;;;2.40;1.67;;;8.00;99.90;;;;;;5071209;28;20286;-70
2021/05/24 05:41:30;;;;;;;2.05;1.83;;;8.10;99.90;;;;;;5069839;28;20196;-71
2021/05/24 05:43:56;;;;;;;2.28;1.90;;;8.20;99.90;;;;;;5069714;28;20201;-71
2021/05/24 05:46:22;;;;;;;2.13;1.92;;;8.30;99.90;;;;;;5070511;28;20212;-71
2021/05/24 05:48:49;;;;;;;2.40;2.17;;;8.30;99.90;;;;;;5070808;28;20200;-71
2021/05/24 05:51:15;;;;;;;2.55;1.70;;;8.40;99.90;;;;;;5070854;28;20265;-71
2021/05/24 05:53:41;;;;;;;3.35;1.92;;;8.50;99.90;;;;;;5071945;28;20732;-71
2021/05/24 05:56:08;;;;;;;2.08;1.83;;;8.60;99.90;;;;;;5071818;28;20622;-71
2021/05/24 05:58:35;;;;;;;2.25;2.05;;;8.70;99.90;;;;;;5071724;28;20593;-71
2021/05/24 06:01:03;;;;;;;2.15;1.95;;;8.70;99.90;;;;;;5071445;28;20254;-71
2021/05/24 06:03:30;;;;;;;2.15;1.95;;;8.80;99.90;;;;;;5085748;23;20282;-74
2021/05/24 06:05:56;;;;;;;1.80;1.70;;;8.90;99.90;;;;;;5059708;28;20299;-75
2021/05/24 06:08:22;;;;;;;2.40;2.20;;;9.00;99.90;;;;;;5070487;28;20200;-75
2021/05/24 06:10:48;;;;;;;3.00;2.10;;;9.10;99.90;;;;;;5071285;28;20200;-73
2021/05/24 06:13:16;;;;;;;1.95;1.85;;;9.10;99.90;;;;;;5070866;28;20228;-74
2021/05/24 06:15:43;;;;;;;2.17;1.98;;;9.20;99.90;;;;;;5070857;28;20205;-74
2021/05/24 06:18:09;;;;;;;2.25;2.03;;;9.30;99.90;;;;;;5070563;28;20587;-74
2021/05/24 06:20:35;;;;;;;2.60;2.40;;;9.30;99.90;;;;;;5070657;28;20204;-71
2021/05/24 06:23:02;;;;;;;2.70;2.38;;;9.40;99.90;;;;;;5070384;28;20707;-71
2021/05/24 06:25:30;;;;;;;2.42;2.22;;;9.50;99.90;;;;;;5070707;28;20208;-71
2021/05/24 06:27:56;;;;;;;4.38;2.53;;;9.60;99.90;;;;;;5070449;28;20687;-71
2021/05/24 06:30:23;;;;;;;6.57;2.30;;;9.70;99.90;;;;;;5070681;28;20204;-71
2021/05/24 06:32:50;;;;;;;3.50;1.92;;;9.80;99.90;;;;;;5070269;28;20228;-71
2021/05/24 06:35:16;;;;;;;3.55;2.30;;;9.90;99.90;;;;;;5069907;28;20584;-72
2021/05/24 06:37:42;;;;;;;3.35;2.50;;;10.00;99.90;;;;;;5069589;28;20282;-71
2021/05/24 06:40:09;;;;;;;2.90;2.60;;;10.10;99.90;;;;;;5070478;28;20247;-72
2021/05/24 06:42:35;;;;;;;2.25;1.90;;;10.20;99.90;;;;;;5070666;28;20205;-71
2021/05/24 06:45:01;;;;;;;2.50;2.30;;;10.30;99.90;;;;;;5070718;28;20207;-72
2021/05/24 06:47:28;;;;;;;2.80;2.60;;;10.40;99.90;;;;;;5069963;28;20603;-71
2021/05/24 06:49:54;;;;;;;2.50;2.10;;;10.50;99.90;;;;;;5070166;28;20204;-71
2021/05/24 06:52:21;;;;;;;3.67;2.50;;;10.60;99.90;;;;;;5070153;28;20212;-71
2021/05/24 06:54:47;;;;;;;3.60;2.63;;;10.70;99.90;;;;;;5055154;28;20571;-71
2021/05/24 06:57:13;;;;;;;2.83;2.40;;;10.80;99.90;;;;;;5050324;28;20209;-71
2021/05/24 06:59:39;;;;;;;3.65;2.53;;;11.00;99.90;;;;;;5049715;28;20205;-71
2021/05/24 07:02:06;;;;;;;3.90;2.83;;;11.00;99.90;;;;;;5050250;28;20568;-71
2021/05/24 07:04:33;;;;;;;4.00;2.25;;;11.10;99.90;;;;;;5050111;28;20229;-71
2021/05/24 07:06:59;;;;;;;2.15;1.95;;;11.20;99.90;;;;;;5050536;28;20201;-71
2021/05/24 07:09:25;;;;;;;3.00;2.15;;;11.30;99.90;;;;;;5049746;28;20231;-71
2021/05/24 07:11:53;;;;;;;3.17;2.08;;;11.50;99.90;;;;;;5050658;28;20205;-71
2021/05/24 07:14:19;;;;;;;2.13;2.03;;;11.60;99.90;;;;;;5050191;28;20728;-71
2021/05/24 07:16:45;;;;;;;2.10;1.90;;;11.70;99.90;;;;;;5050107;28;20460;-71
2021/05/24 07:19:12;;;;;;;2.03;1.83;;;11.80;99.90;;;;;;5050093;28;20442;-71
2021/05/24 07:21:39;;;;;;;1.70;1.50;;;11.90;99.90;;;;;;5050488;28;20462;-71
2021/05/24 07:24:05;;;;;;;2.27;1.47;;;12.10;99.90;;;;;;5050040;28;20268;-71
2021/05/24 07:26:31;;;;;;;1.80;1.60;;;12.20;99.90;;;;;;5049914;28;20467;-71
2021/05/24 07:28:58;;;;;;;2.20;1.60;;;12.30;99.90;;;;;;5049859;28;20828;-71
2021/05/24 07:31:24;;;;;;;1.53;1.33;;;12.40;99.90;;;;;;5049966;28;20887;-71
2021/05/24 07:33:50;;;;;;;1.83;1.67;;;12.50;99.90;;;;;;5050346;28;20534;-71
2021/05/24 07:36:16;;;;;;;3.20;1.40;;;12.60;99.90;;;;;;5050016;28;20470;-71
2021/05/24 07:38:43;;;;;;;1.77;1.40;;;12.60;99.90;;;;;;5049778;28;20488;-71
2021/05/24 07:41:10;;;;;;;1.67;1.20;;;12.70;99.90;;;;;;5049472;28;20459;-71
2021/05/24 07:43:36;;;;;;;2.70;1.77;;;12.80;99.90;;;;;;5048295;28;20475;-71
2021/05/24 07:46:02;;;;;;;1.93;1.40;;;12.80;99.90;;;;;;5048364;28;21118;-71
2021/05/24 07:48:28;;;;;;;2.13;1.27;;;12.90;99.90;;;;;;5048303;28;20455;-71
2021/05/24 07:50:55;;;;;;;2.27;1.30;;;12.80;99.90;;;;;;5049848;28;20486;-71
2021/05/24 07:53:21;;;;;;;1.20;1.07;;;12.90;99.90;;;;;;5049617;28;21056;-71
2021/05/24 07:55:48;;;;;;;3.23;1.23;;;13.00;99.90;;;;;;5049309;28;20456;-70
2021/05/24 07:58:14;;;;;;;1.60;1.20;;;13.10;99.90;;;;;;5050945;28;20486;-69
2021/05/24 08:00:40;;;;;;;1.70;1.40;;;13.10;99.90;;;;;;5053755;28;21000;-70
2021/05/24 08:03:07;;;;;;;1.17;1.00;;;13.20;99.90;;;;;;5050513;28;21005;-71
2021/05/24 08:05:33;;;;;;;1.40;1.30;;;13.30;99.90;;;;;;5051731;28;20459;-72
2021/05/24 08:07:59;;;;;;;1.10;1.00;;;13.40;99.90;;;;;;5051694;28;20459;-72
2021/05/24 08:10:25;;;;;;;1.60;1.43;;;13.40;99.90;;;;;;5051456;28;20463;-70
2021/05/24 08:12:52;;;;;;;1.27;1.10;;;13.50;99.90;;;;;;5051740;28;20479;-71
2021/05/24 08:15:29;;;;;;;1.70;1.13;;;13.50;99.90;;;;;;5051523;28;20463;-71
2021/05/24 08:17:55;;;;;;;1.40;1.23;;;13.60;99.90;;;;;;5050861;28;20471;-70
2021/05/24 08:20:22;;;;;;;1.73;1.20;;;13.60;99.90;;;;;;5051256;28;20983;-72
2021/05/24 08:22:48;;;;;;;2.00;1.40;;;13.60;99.90;;;;;;5051272;28;20558;-70
2021/05/24 08:25:14;;;;;;;2.87;1.30;;;13.70;99.90;;;;;;5051076;28;20455;-70
2021/05/24 08:27:40;;;;;;;1.23;1.13;;;13.70;99.90;;;;;;5051497;28;20457;-69
2021/05/24 08:30:09;;;;;;;3.00;1.10;;;13.70;99.90;;;;;;5051581;28;20466;-69
2021/05/24 08:32:36;;;;;;;1.97;1.07;;;13.70;99.90;;;;;;5051540;28;20455;-70
2021/05/24 08:35:03;;;;;;;1.53;1.00;;;13.80;99.90;;;;;;5051355;28;20529;-70
2021/05/24 08:37:29;;;;;;;1.27;1.17;;;13.90;99.90;;;;;;5051643;28;20574;-70
2021/05/24 08:39:56;;;;;;;1.50;1.10;;;14.00;99.90;;;;;;5050771;28;20512;-69
2021/05/24 08:42:25;;;;;;;3.20;1.17;;;14.00;99.90;;;;;;5050466;28;20466;-69
2021/05/24 08:44:52;;;;;;;1.50;1.20;;;14.20;99.90;;;;;;5056538;28;20977;-70
2021/05/24 08:47:23;;;;;;;1.63;1.17;;;14.30;99.90;;;;;;5070878;28;20462;-70
2021/05/24 08:49:49;;;;;;;2.90;1.47;;;14.40;99.90;;;;;;5070798;28;20465;-69
2021/05/24 08:52:15;;;;;;;1.87;1.40;;;14.60;99.90;;;;;;5067179;28;20510;-70
2021/05/24 08:54:42;;;;;;;1.43;1.33;;;14.80;99.90;;;;;;5051119;28;20483;-69
2021/05/24 08:57:08;;;;;;;1.30;1.20;;;14.90;99.90;;;;;;5050896;28;20463;-69
2021/05/24 08:59:35;;;;;;;1.40;1.30;;;15.10;99.90;;;;;;5050709;28;20470;-69
2021/05/24 09:02:01;;;;;;;1.67;1.23;;;15.20;99.90;;;;;;5051242;28;20478;-70
2021/05/24 09:04:43;;;;;;;2.83;1.33;;;15.40;99.90;;;;;;5050612;28;20491;-70
2021/05/24 09:07:11;;;;;;;1.67;1.30;;;15.50;99.90;;;;;;5051044;28;20469;-69
2021/05/24 09:09:38;;;;;;;1.20;1.10;;;15.70;99.90;;;;;;5049349;28;20461;-70
2021/05/24 09:12:17;;;;;;;1.40;1.10;;;15.70;99.90;;;;;;5050570;28;20542;-69
2021/05/24 09:14:55;;;;;;;1.73;1.20;;;15.70;99.90;;;;;;5050353;28;20478;-69
2021/05/24 09:17:22;;;;;;;1.50;1.17;;;15.90;99.90;;;;;;5050426;28;20947;-69
2021/05/24 09:19:50;;;;;;;1.77;1.20;;;15.90;99.90;;;;;;5050430;28;20466;-70
2021/05/24 09:22:16;;;;;;;2.63;1.43;;;16.10;99.90;;;;;;5050086;28;20456;-70
2021/05/24 09:24:44;;;;;;;3.83;1.23;;;16.20;99.90;;;;;;5050114;28;20483;-70
2021/05/24 09:27:24;;;;;;;1.27;1.17;;;16.30;99.90;;;;;;5050254;28;20467;-69
2021/05/24 09:29:52;;;;;;;2.17;1.40;;;16.40;99.90;;;;;;5050247;28;20463;-69
2021/05/24 09:32:20;;;;;;;2.17;1.10;;;16.50;99.90;;;;;;5049896;28;20471;-69
2021/05/24 09:34:48;;;;;;;1.77;1.40;;;16.60;99.90;;;;;;5050179;28;20483;-70
2021/05/24 09:37:17;;;;;;;1.20;1.00;;;16.80;99.90;;;;;;5049861;28;20494;-69
2021/05/24 09:39:44;;;;;;;1.67;1.13;;;16.90;99.50;;;;;;5049433;28;20958;-69
2021/05/24 09:42:12;;;;;;;2.23;1.20;;;16.90;98.80;;;;;;5050065;28;20455;-69
2021/05/24 09:44:44;;;;;;;1.67;1.13;;;16.90;98.90;;;;;;5049759;28;21021;-69
2021/05/24 09:47:11;;;;;;;2.27;1.37;;;16.90;99.30;;;;;;5049531;28;20521;-70
2021/05/24 09:49:38;;;;;;;2.00;1.13;;;16.90;98.80;;;;;;5049781;28;20537;-70
2021/05/24 09:52:05;;;;;;;1.40;1.27;;;16.90;98.80;;;;;;5049730;28;21040;-70
2021/05/24 09:54:35;;;;;;;2.00;1.77;;;16.90;99.40;;;;;;5049903;28;20483;-68
2021/05/24 09:57:05;;;;;;;1.37;1.07;;;17.00;99.90;;;;;;5050045;28;20543;-69
2021/05/24 09:59:34;;;;;;;1.80;1.37;;;17.20;99.80;;;;;;5049746;28;20488;-70
2021/05/24 10:02:02;;;;;;;1.30;1.10;;;17.30;99.70;;;;;;5050340;28;20467;-70
2021/05/24 10:04:30;;;;;;;1.70;1.60;;;17.30;98.50;;;;;;5049844;28;20995;-70
2021/05/24 10:06:57;;;;;;;1.33;1.23;;;17.30;98.10;;;;;;5046089;28;20539;-69
2021/05/24 10:09:24;;;;;;;1.40;1.30;;;17.30;97.50;;;;;;5047991;28;20459;-71
2021/05/24 10:11:53;;;;;;;1.20;1.00;;;17.30;96.90;;;;;;5046360;28;20463;-70
2021/05/24 10:14:21;;;;;;;2.70;1.10;;;17.10;96.90;;;;;;5048288;28;20476;-71
2021/05/24 10:16:50;;;;;;;1.63;1.20;;;17.10;96.10;;;;;;5048568;28;20885;-71
2021/05/24 10:19:18;;;;;;;1.20;1.10;;;17.20;96.70;;;;;;5048463;28;20483;-71
2021/05/24 10:21:46;;;;;;;1.33;1.03;;;17.20;96.30;;;;;;5048391;28;20517;-71
2021/05/24 10:24:13;;;;;;;1.57;0.97;;;17.30;97.10;;;;;;5045437;28;20491;-71
2021/05/24 10:26:41;;;;;;;1.10;1.00;;;17.40;95.90;;;;;;5047499;28;20451;-69
2021/05/24 10:29:09;;;;;;;1.93;1.13;;;17.40;94.40;;;;;;5047407;28;20859;-70
2021/05/24 10:31:36;;;;;;;1.50;1.10;;;17.40;94.80;;;;;;5047597;28;20468;-69
2021/05/24 10:34:12;;;;;;;2.10;1.23;;;17.40;94.50;;;;;;5047766;28;20467;-70
2021/05/24 10:36:39;;;;;;;1.13;1.00;;;17.50;95.10;;;;;;5045851;28;20471;-70
2021/05/24 10:39:15;;;;;;;1.30;1.20;;;17.50;94.90;;;;;;5048144;28;20832;-71
2021/05/24 10:41:57;;;;;;;1.50;1.00;;;17.60;95.40;;;;;;5048977;28;20458;-70
2021/05/24 10:44:26;;;;;;;1.00;0.90;;;17.60;93.00;;;;;;5048693;28;20480;-70
2021/05/24 10:46:53;;;;;;;2.90;0.90;;;17.50;93.80;;;;;;5048579;28;20463;-70
2021/05/24 10:49:25;;;;;;;1.47;1.37;;;17.50;94.30;;;;;;5048294;28;20660;-71
2021/05/24 10:52:09;;;;;;;1.10;0.90;;;17.50;93.30;;;;;;5048799;28;20536;-70
2021/05/24 10:54:41;;;;;;;1.67;1.10;;;17.40;92.70;;;;;;5048369;28;20482;-70
2021/05/24 10:57:16;;;;;;;1.57;0.93;;;17.40;92.60;;;;;;5046185;28;20471;-71
2021/05/24 10:59:54;;;;;;;2.07;1.07;;;17.40;92.00;;;;;;5047838;28;20753;-69
2021/05/24 11:02:38;;;;;;;1.00;0.90;;;17.40;92.30;;;;;;5047657;28;20456;-70
2021/05/24 11:05:25;;;;;;;1.53;1.00;;;17.30;92.70;;;;;;5044680;28;20505;-70
2021/05/24 11:07:55;;;;;;;1.47;0.90;;;17.50;92.70;;;;;;5046418;28;20959;-70
2021/05/24 11:10:24;;;;;;;1.10;0.93;;;17.50;93.60;;;;;;5045037;28;20874;-69
2021/05/24 11:12:52;;;;;;;1.10;0.93;;;17.50;90.80;;;;;;5047811;28;20456;-70
2021/05/24 11:15:21;;;;;;;1.37;1.17;;;17.50;90.10;;;;;;5047480;28;20986;-71
2021/05/24 11:18:14;;;;;;;1.90;0.83;;;17.40;89.80;;;;;;5046987;28;20999;-70
2021/05/24 11:20:46;;;;;;;1.63;1.10;;;17.50;90.10;;;;;;5044810;28;20460;-70
2021/05/24 11:23:22;;;;;;;1.97;1.00;;;17.50;90.20;;;;;;5047534;28;20849;-69
2021/05/24 11:25:50;;;;;;;1.70;1.20;;;17.60;86.50;;;;;;5043458;28;20556;-70
2021/05/24 11:28:16;;;;;;;1.37;1.10;;;17.90;88.60;;;;;;5047930;28;20459;-70
2021/05/24 11:30:44;;;;;;;1.23;1.00;;;18.10;85.70;;;;;;5047236;28;20520;-69
2021/05/24 11:33:38;;;;;;;1.97;1.00;;;18.20;84.40;;;;;;5049694;28;20483;-70
2021/05/24 11:36:05;;;;;;;1.20;1.00;;;18.30;87.40;;;;;;5049281;28;20459;-70
2021/05/24 11:38:32;;;;;;;1.30;0.90;;;18.40;87.80;;;;;;5050802;28;20577;-70
2021/05/24 11:41:13;;;;;;;2.90;1.27;;;18.70;85.70;;;;;;5051439;28;20457;-69
2021/05/24 11:43:41;;;;;;;1.53;0.80;;;19.00;86.70;;;;;;5048457;28;21012;-70
2021/05/24 11:46:11;;;;;;;1.10;0.90;;;19.20;83.80;;;;;;5051323;28;20909;-70
2021/05/24 11:48:39;;;;;;;2.40;0.93;;;19.20;81.20;;;;;;5050532;28;20481;-70
2021/05/24 11:51:06;;;;;;;1.07;0.97;;;19.40;83.30;;;;;;5051533;28;20463;-70
2021/05/24 11:53:33;;;;;;;1.53;1.13;;;19.30;80.40;;;;;;5050805;28;20478;-70
2021/05/24 11:56:10;;;;;;;1.63;1.20;;;19.40;82.50;;;;;;5050213;28;20459;-69
2021/05/24 11:58:58;;;;;;;1.83;1.00;;;19.50;81.30;;;;;;5050364;28;20479;-69
2021/05/24 12:01:27;;;;;;;1.47;1.00;;;19.50;84.20;;;;;;5048945;28;20542;-69
2021/05/24 12:03:53;;;;;;;1.40;1.27;;;19.50;87.80;;;;;;5050840;28;20517;-69
2021/05/24 12:06:20;;;;;;;1.20;0.90;;;19.60;88.20;;;;;;5047533;28;20574;-69
2021/05/24 12:08:46;;;;;;;1.50;1.30;;;19.60;86.70;;;;;;5050433;28;20545;-70
2021/05/24 12:11:14;;;;;;;1.50;1.40;;;19.50;84.40;;;;;;5050973;28;20470;-69
2021/05/24 12:13:57;;;;;;;1.20;1.10;;;19.60;87.70;;;;;;5050935;28;20556;-69
2021/05/24 12:16:25;;;;;;;1.57;1.07;;;19.70;87.80;;;;;;5050210;28;20467;-69
2021/05/24 12:18:52;;;;;;;1.63;1.27;;;19.70;85.70;;;;;;5050623;28;20511;-69
2021/05/24 12:21:37;;;;;;;1.20;1.03;;;19.70;89.60;;;;;;5051028;28;20455;-69
2021/05/24 12:24:07;;;;;;;1.43;1.00;;;19.70;90.80;;;;;;5050304;28;20483;-69
2021/05/24 12:26:35;;;;;;;1.53;1.13;;;19.60;90.20;;;;;;5050586;28;20890;-68
2021/05/24 12:29:01;;;;;;;2.17;1.30;;;19.40;86.10;;;;;;5050110;28;20448;-69
2021/05/24 12:31:29;;;;;;;1.50;1.10;;;19.10;86.70;;;;;;5047928;28;20487;-68
2021/05/24 12:33:57;;;;;;;2.13;1.20;;;18.90;88.80;;;;;;5088291;22;20506;-70
2021/05/24 12:36:32;;;;;;;1.20;1.00;;;18.80;88.10;;;;;;5086509;28;20460;-69
2021/05/24 12:39:03;;;;;;;1.50;1.33;;;18.80;90.10;;;;;;5090628;28;20485;-67
2021/05/24 12:41:30;;;;;;;1.43;1.33;;;18.80;88.80;;;;;;5090994;28;20473;-69
2021/05/24 12:44:01;;;;;;;1.50;1.30;;;18.80;89.10;;;;;;5105898;28;20567;-68
2021/05/24 12:46:29;;;;;;;2.20;1.60;;;18.70;90.00;;;;;;5108650;28;20468;-69
2021/05/24 12:48:58;;;;;;;1.33;1.23;;;18.70;89.20;;;;;;5108328;28;20456;-70
2021/05/24 12:51:26;;;;;;;1.67;1.43;;;18.60;88.60;;;;;;5108523;28;20456;-69
2021/05/24 12:53:57;;;;;;;1.27;1.17;;;18.60;89.50;;;;;;5108517;28;20469;-69
2021/05/24 12:56:33;;;;;;;2.03;1.20;;;18.50;89.30;;;;;;5108400;28;21016;-68